createdAt,value
2019-02-19T00:02:21.845Z,56.03
2019-02-19T00:04:50.122Z,50.73
2019-02-19T00:07:21.298Z,54.80
2019-02-19T00:09:49.583Z,51.30
2019-02-19T00:12:17.851Z,55.00
2019-02-19T00:14:46.238Z,55.10
2019-02-19T00:17:14.627Z,43.73
2019-02-19T00:19:42.877Z,51.57
2019-02-19T00:22:11.151Z,48.70
2019-02-19T00:24:39.424Z,55.10
2019-02-19T00:27:07.802Z,55.47
2019-02-19T00:29:36.072Z,59.03
2019-02-19T00:32:04.361Z,56.60
2019-02-19T00:34:32.671Z,62.57
2019-02-19T00:37:01.803Z,63.27
2019-02-19T00:39:30.099Z,63.03
2019-02-19T00:41:58.353Z,86.00
2019-02-19T00:44:26.608Z,92.17
2019-02-19T00:46:54.992Z,93.30
2019-02-19T00:49:23.868Z,89.13
2019-02-19T00:51:52.122Z,124.80
2019-02-19T00:54:20.443Z,100.87
2019-02-19T00:56:49.532Z,119.13
2019-02-19T00:59:17.850Z,112.10
2019-02-19T01:01:46.157Z,93.63
2019-02-19T01:04:14.511Z,82.03
2019-02-19T01:06:42.783Z,80.50
2019-02-19T01:09:11.081Z,84.80
2019-02-19T01:11:39.339Z,67.07
2019-02-19T01:14:07.738Z,74.80
2019-02-19T01:16:35.982Z,77.50
2019-02-19T01:19:04.248Z,79.63
2019-02-19T01:21:32.521Z,67.50
2019-02-19T01:24:00.781Z,74.50
2019-02-19T01:26:29.103Z,87.73
2019-02-19T01:28:58.382Z,73.83
2019-02-19T01:31:26.764Z,72.27
2019-02-19T01:33:55.050Z,88.47
2019-02-19T01:36:23.312Z,82.57
2019-02-19T01:38:51.608Z,84.67
2019-02-19T01:41:19.906Z,78.90
2019-02-19T01:43:48.502Z,75.67
2019-02-19T01:46:16.834Z,85.57
2019-02-19T01:48:45.854Z,62.77
2019-02-19T01:51:14.709Z,66.50
2019-02-19T01:53:42.962Z,68.50
2019-02-19T01:56:11.265Z,51.83
2019-02-19T01:58:39.542Z,65.43
2019-02-19T02:01:07.833Z,57.40
2019-02-19T02:03:36.140Z,43.57
2019-02-19T02:06:04.446Z,37.83
2019-02-19T02:08:32.695Z,42.47
2019-02-19T02:11:01.087Z,37.23
2019-02-19T02:13:29.352Z,42.47
2019-02-19T02:15:57.629Z,39.97
2019-02-19T02:18:26.012Z,33.43
2019-02-19T02:20:54.269Z,29.83
2019-02-19T02:23:22.579Z,23.67
2019-02-19T02:25:50.927Z,32.23
2019-02-19T02:28:19.185Z,33.47
2019-02-19T02:30:47.457Z,28.43
2019-02-19T02:33:15.718Z,25.80
2019-02-19T02:35:44.032Z,34.60
2019-02-19T02:38:12.399Z,30.77
2019-02-19T02:40:40.766Z,35.47
2019-02-19T02:43:09.414Z,35.77
2019-02-19T02:45:37.700Z,33.23
2019-02-19T02:48:06.021Z,36.57
2019-02-19T02:50:34.280Z,35.90
2019-02-19T02:53:02.564Z,28.03
2019-02-19T02:55:30.817Z,34.13
2019-02-19T02:57:59.283Z,29.53
2019-02-19T03:00:27.601Z,28.30
2019-02-19T03:02:55.851Z,33.80
2019-02-19T03:05:25.348Z,36.33
2019-02-19T03:07:55.393Z,40.97
2019-02-19T03:10:23.676Z,36.00
2019-02-19T03:12:51.934Z,39.67
2019-02-19T03:15:20.229Z,32.90
2019-02-19T03:17:48.510Z,40.73
2019-02-19T03:20:16.785Z,36.57
2019-02-19T03:22:45.769Z,48.87
2019-02-19T03:25:14.059Z,33.33
2019-02-19T03:27:42.295Z,30.73
2019-02-19T03:30:11.328Z,30.57
2019-02-19T03:32:39.806Z,34.47
2019-02-19T03:35:08.048Z,28.73
2019-02-19T03:37:36.367Z,28.90
2019-02-19T03:40:07.560Z,25.10
2019-02-19T03:42:35.604Z,28.03
2019-02-19T03:45:04.656Z,26.23
2019-02-19T03:47:32.934Z,25.63
2019-02-19T03:50:01.238Z,25.67
2019-02-19T03:52:29.494Z,25.60
2019-02-19T03:54:57.829Z,28.77
2019-02-19T03:57:26.197Z,27.70
2019-02-19T03:59:54.436Z,30.10
2019-02-19T04:02:22.736Z,23.33
2019-02-19T04:04:51.052Z,29.13
2019-02-19T04:07:19.316Z,23.13
2019-02-19T04:09:47.573Z,32.40
2019-02-19T04:12:15.857Z,32.33
2019-02-19T04:14:44.819Z,34.60
2019-02-19T04:17:13.098Z,25.53
2019-02-19T04:19:41.361Z,23.87
2019-02-19T04:22:09.655Z,33.40
2019-02-19T04:24:37.987Z,37.63
2019-02-19T04:27:06.232Z,27.40
2019-02-19T04:29:34.507Z,24.63
2019-02-19T04:32:02.826Z,35.77
2019-02-19T04:34:31.104Z,24.63
2019-02-19T04:36:59.859Z,24.33
2019-02-19T04:39:28.221Z,23.17
2019-02-19T04:41:56.496Z,25.50
2019-02-19T04:44:24.810Z,25.87
2019-02-19T04:46:53.131Z,28.77
2019-02-19T04:49:21.379Z,43.17
2019-02-19T04:51:49.732Z,35.43
2019-02-19T04:54:18.192Z,28.03
2019-02-19T04:56:46.524Z,25.23
2019-02-19T04:59:14.763Z,20.93
2019-02-19T05:01:43.020Z,28.83
2019-02-19T05:04:11.300Z,27.07
2019-02-19T05:06:39.554Z,23.60
2019-02-19T05:09:10.149Z,28.77
2019-02-19T05:11:38.395Z,26.80
2019-02-19T05:14:06.684Z,35.27
2019-02-19T05:16:40.766Z,19.10
2019-02-19T05:19:05.186Z,23.50
2019-02-19T05:21:34.573Z,27.17
2019-02-19T05:24:03.676Z,32.50
2019-02-19T05:26:31.947Z,23.43
2019-02-19T05:29:00.249Z,26.47
2019-02-19T05:31:28.570Z,22.30
2019-02-19T05:33:56.824Z,28.03
2019-02-19T05:36:25.785Z,33.47
2019-02-19T05:38:54.085Z,32.67
2019-02-19T05:41:22.335Z,29.17
2019-02-19T05:43:50.678Z,37.50
2019-02-19T05:46:18.974Z,28.30
2019-02-19T05:48:47.276Z,36.73
2019-02-19T05:51:15.658Z,23.30
2019-02-19T05:53:44.941Z,27.27
2019-02-19T05:56:13.422Z,26.87
2019-02-19T05:58:42.008Z,28.20
2019-02-19T06:01:10.312Z,45.97
2019-02-19T06:03:39.452Z,30.67
2019-02-19T06:06:07.706Z,26.23
2019-02-19T06:08:36.574Z,27.57
2019-02-19T06:11:04.849Z,27.10
2019-02-19T06:13:33.138Z,28.43
2019-02-19T06:16:01.416Z,28.50
2019-02-19T06:18:29.733Z,39.07
2019-02-19T06:20:57.985Z,29.73
2019-02-19T06:23:26.246Z,28.43
2019-02-19T06:25:54.589Z,33.70
2019-02-19T06:28:22.825Z,38.37
2019-02-19T06:30:51.173Z,33.50
2019-02-19T06:33:19.447Z,27.37
2019-02-19T06:35:47.830Z,32.20
2019-02-19T06:38:16.084Z,31.50
2019-02-19T06:40:44.374Z,35.57
2019-02-19T06:43:12.672Z,38.10
2019-02-19T06:45:41.066Z,22.33
2019-02-19T06:48:09.348Z,35.97
2019-02-19T06:50:37.604Z,33.17
2019-02-19T06:53:05.993Z,43.17
2019-02-19T06:55:34.308Z,27.10
2019-02-19T06:58:02.588Z,29.03
2019-02-19T07:00:30.858Z,26.60
2019-02-19T07:03:00.771Z,34.63
2019-02-19T07:05:29.151Z,28.90
2019-02-19T07:07:57.440Z,30.70
2019-02-19T07:10:25.722Z,29.40
2019-02-19T07:12:54.035Z,28.57
2019-02-19T07:15:22.404Z,29.77
2019-02-19T07:17:50.657Z,28.40
2019-02-19T07:20:18.912Z,30.37
2019-02-19T07:22:47.228Z,38.33
2019-02-19T07:25:15.658Z,26.40
2019-02-19T07:27:43.915Z,19.90
2019-02-19T07:30:12.550Z,30.53
2019-02-19T07:32:40.945Z,28.87
2019-02-19T07:35:10.275Z,26.70
2019-02-19T07:37:38.578Z,37.13
2019-02-19T07:40:08.427Z,31.83
2019-02-19T07:42:36.721Z,41.70
2019-02-19T07:45:08.121Z,33.50
2019-02-19T07:47:36.398Z,27.03
2019-02-19T07:50:06.673Z,22.93
2019-02-19T07:52:34.982Z,27.63
2019-02-19T07:55:03.542Z,24.00
2019-02-19T07:57:31.818Z,34.80
2019-02-19T08:00:03.338Z,42.97
2019-02-19T08:02:31.601Z,37.67
2019-02-19T08:04:59.968Z,39.23
2019-02-19T08:07:28.309Z,40.07
2019-02-19T08:09:57.590Z,32.67
2019-02-19T08:12:26.355Z,27.40
2019-02-19T08:14:54.962Z,23.07
2019-02-19T08:17:23.221Z,45.33
2019-02-19T08:19:51.511Z,32.50
2019-02-19T08:22:19.812Z,26.30
2019-02-19T08:24:48.102Z,31.90
2019-02-19T08:27:16.360Z,32.23
2019-02-19T08:29:44.684Z,28.67
2019-02-19T08:32:13.012Z,31.00
2019-02-19T08:34:41.384Z,29.23
2019-02-19T08:37:09.636Z,31.73
2019-02-19T08:39:37.914Z,22.03
2019-02-19T08:42:06.239Z,28.67
2019-02-19T08:44:34.487Z,21.13
2019-02-19T08:47:02.837Z,26.40
2019-02-19T08:49:31.092Z,21.73
2019-02-19T08:51:59.551Z,17.60
2019-02-19T08:54:27.840Z,22.87
2019-02-19T08:56:56.110Z,33.17
2019-02-19T08:59:24.413Z,33.33
2019-02-19T09:01:52.661Z,22.73
2019-02-19T09:04:20.906Z,26.90
2019-02-19T09:06:49.954Z,25.80
2019-02-19T09:09:18.213Z,29.97
2019-02-19T09:11:46.497Z,17.43
2019-02-19T09:14:14.744Z,11.00
2019-02-19T09:16:43.060Z,20.93
2019-02-19T09:19:11.325Z,26.13
2019-02-19T09:21:39.573Z,21.63
2019-02-19T09:24:09.724Z,20.43
2019-02-19T09:26:37.858Z,27.33
2019-02-19T09:29:06.171Z,28.37
2019-02-19T09:31:34.462Z,28.17
2019-02-19T09:34:02.998Z,27.27
2019-02-19T09:36:31.279Z,22.57
2019-02-19T09:38:59.642Z,22.40
2019-02-19T09:41:27.916Z,20.77
2019-02-19T09:43:56.190Z,15.47
2019-02-19T09:46:24.471Z,23.03
2019-02-19T09:48:52.776Z,29.97
2019-02-19T09:51:21.024Z,28.50
2019-02-19T09:53:49.280Z,19.57
2019-02-19T09:56:17.572Z,18.20
2019-02-19T09:58:45.862Z,23.97
2019-02-19T10:01:14.164Z,25.50
2019-02-19T10:03:44.152Z,14.97
2019-02-19T10:06:12.421Z,12.97
2019-02-19T10:08:40.819Z,28.53
2019-02-19T10:11:09.091Z,20.83
2019-02-19T10:13:37.470Z,17.37
2019-02-19T10:16:05.777Z,19.90
2019-02-19T10:18:34.019Z,12.67
2019-02-19T10:21:02.467Z,16.93
2019-02-19T10:23:30.705Z,22.23
2019-02-19T10:25:58.951Z,17.83
2019-02-19T10:28:27.274Z,12.57
2019-02-19T10:30:55.820Z,11.83
2019-02-19T10:33:24.122Z,19.13
2019-02-19T10:35:52.434Z,17.90
2019-02-19T10:38:20.801Z,30.47
2019-02-19T10:40:49.065Z,19.60
2019-02-19T10:43:17.356Z,8.77
2019-02-19T10:45:45.624Z,17.63
2019-02-19T10:48:18.950Z,19.97
2019-02-19T10:50:44.041Z,9.33
2019-02-19T10:53:12.335Z,13.13
2019-02-19T10:55:40.582Z,11.87
2019-02-19T10:58:08.892Z,24.93
2019-02-19T11:00:37.279Z,11.47
2019-02-19T11:03:05.549Z,13.30
2019-02-19T11:05:33.807Z,18.33
2019-02-19T11:08:02.133Z,14.67
2019-02-19T11:10:30.377Z,12.70
2019-02-19T11:12:58.764Z,14.40
2019-02-19T11:15:27.069Z,16.80
2019-02-19T11:17:55.362Z,25.93
2019-02-19T11:20:23.917Z,20.10
2019-02-19T11:22:52.219Z,23.27
2019-02-19T11:25:20.494Z,17.33
2019-02-19T11:27:48.766Z,17.23
2019-02-19T11:30:20.104Z,16.27
2019-02-19T11:32:48.348Z,9.20
2019-02-19T11:35:16.607Z,10.53
2019-02-19T11:37:44.883Z,15.37
2019-02-19T11:40:14.005Z,16.70
2019-02-19T11:42:42.307Z,31.93
2019-02-19T11:45:16.040Z,9.67
2019-02-19T11:47:44.285Z,12.43
2019-02-19T11:50:13.203Z,21.73
2019-02-19T11:52:41.551Z,12.33
2019-02-19T11:55:15.767Z,10.10
2019-02-19T11:57:44.050Z,12.77
2019-02-19T12:00:16.020Z,14.03
2019-02-19T12:02:44.402Z,19.37
2019-02-19T12:05:12.741Z,29.70
2019-02-19T12:07:41.052Z,24.30
2019-02-19T12:10:11.774Z,20.23
2019-02-19T12:12:39.792Z,13.50
2019-02-19T12:15:12.271Z,15.77
2019-02-19T12:17:40.527Z,18.87
2019-02-19T12:20:13.888Z,14.77
2019-02-19T12:22:42.136Z,12.43
2019-02-19T12:25:10.552Z,15.93
2019-02-19T12:27:38.866Z,14.30
2019-02-19T12:30:10.468Z,11.43
2019-02-19T12:32:39.634Z,16.90
2019-02-19T12:35:08.651Z,16.73
2019-02-19T12:37:36.919Z,13.30
2019-02-19T12:40:08.241Z,12.33
2019-02-19T12:42:36.495Z,16.57
2019-02-19T12:45:06.290Z,24.00
2019-02-19T12:47:34.573Z,21.50
2019-02-19T12:50:02.842Z,19.93
2019-02-19T12:52:31.228Z,24.50
2019-02-19T12:54:59.532Z,13.80
2019-02-19T12:57:27.901Z,23.87
2019-02-19T12:59:56.796Z,15.23
2019-02-19T13:02:25.179Z,13.97
2019-02-19T13:04:53.466Z,13.00
2019-02-19T13:07:21.711Z,16.63
2019-02-19T13:09:49.991Z,17.30
2019-02-19T13:12:18.375Z,19.70
2019-02-19T13:14:46.629Z,22.60
2019-02-19T13:17:14.882Z,22.10
2019-02-19T13:19:43.231Z,19.53
2019-02-19T13:22:11.517Z,19.73
2019-02-19T13:24:39.784Z,12.67
2019-02-19T13:27:08.068Z,19.33
2019-02-19T13:29:36.449Z,15.97
2019-02-19T13:32:04.712Z,16.67
2019-02-19T13:34:33.005Z,12.13
2019-02-19T13:37:01.355Z,19.47
2019-02-19T13:39:29.604Z,16.70
2019-02-19T13:41:57.909Z,14.50
2019-02-19T13:44:26.177Z,16.30
2019-02-19T13:46:54.468Z,17.07
2019-02-19T13:49:22.754Z,25.27
2019-02-19T13:51:52.222Z,14.73
2019-02-19T13:54:22.164Z,22.63
2019-02-19T13:56:50.435Z,16.67
2019-02-19T13:59:18.698Z,12.90
2019-02-19T14:01:46.993Z,17.77
2019-02-19T14:04:15.258Z,10.17
2019-02-19T14:06:43.519Z,16.93
2019-02-19T14:09:11.949Z,19.07
2019-02-19T14:11:40.312Z,16.77
2019-02-19T14:14:12.585Z,14.23
2019-02-19T14:16:42.502Z,18.33
2019-02-19T14:19:21.010Z,15.00
2019-02-19T14:21:43.974Z,14.80
2019-02-19T14:24:13.866Z,17.47
2019-02-19T14:26:50.020Z,23.77
2019-02-19T14:29:19.959Z,17.97
2019-02-19T14:32:08.174Z,14.80
2019-02-19T14:34:43.848Z,22.53
2019-02-19T14:37:25.525Z,20.20
2019-02-19T14:39:58.503Z,14.37
2019-02-19T14:42:43.821Z,11.57
2019-02-19T14:45:29.868Z,15.27
2019-02-19T14:48:05.505Z,14.07
2019-02-19T14:50:40.976Z,20.37
2019-02-19T14:53:27.067Z,22.20
2019-02-19T14:55:59.798Z,22.83
2019-02-19T14:58:35.659Z,11.80
2019-02-19T15:01:23.769Z,16.47
2019-02-19T15:03:56.481Z,9.50
2019-02-19T15:06:31.963Z,8.63
2019-02-19T15:09:10.670Z,15.73
2019-02-19T15:11:43.522Z,16.37
2019-02-19T15:14:29.659Z,18.33
2019-02-19T15:17:11.317Z,18.70
2019-02-19T15:19:44.184Z,14.60
2019-02-19T15:22:14.098Z,14.97
2019-02-19T15:24:49.705Z,21.73
2019-02-19T15:27:22.042Z,21.63
2019-02-19T15:30:08.426Z,28.03
2019-02-19T15:32:54.664Z,20.80
2019-02-19T15:35:40.741Z,27.03
2019-02-19T15:38:19.729Z,12.53
2019-02-19T15:41:05.716Z,13.80
2019-02-19T15:43:50.671Z,22.73
2019-02-19T15:46:36.587Z,16.63
2019-02-19T15:49:12.349Z,21.13
2019-02-19T15:51:42.268Z,15.60
2019-02-19T15:54:30.229Z,22.40
2019-02-19T15:57:15.119Z,13.70
2019-02-19T16:00:01.740Z,21.20
2019-02-19T16:02:34.143Z,30.37
2019-02-19T16:05:07.069Z,20.63
2019-02-19T16:07:48.850Z,30.90
2019-02-19T16:10:24.423Z,23.07
2019-02-19T16:12:54.342Z,23.87
2019-02-19T16:15:27.249Z,20.03
2019-02-19T16:17:59.978Z,11.90
2019-02-19T16:20:38.806Z,22.07
2019-02-19T16:23:08.759Z,20.57
2019-02-19T16:25:41.417Z,19.30
2019-02-19T16:28:26.194Z,20.70
2019-02-19T16:30:58.916Z,18.00
2019-02-19T16:33:43.955Z,18.10
2019-02-19T16:36:20.118Z,26.90
2019-02-19T16:39:05.502Z,19.27
2019-02-19T16:41:44.314Z,16.63
2019-02-19T16:44:14.410Z,29.80
2019-02-19T16:46:50.085Z,32.20
2019-02-19T16:49:36.213Z,12.10
2019-02-19T16:52:09.071Z,16.53
2019-02-19T16:54:38.958Z,18.87
2019-02-19T16:57:11.590Z,16.83
2019-02-19T16:59:53.047Z,27.73
2019-02-19T17:02:39.306Z,33.17
2019-02-19T17:05:18.267Z,12.70
2019-02-19T17:07:56.970Z,35.27
2019-02-19T17:10:26.930Z,30.50
2019-02-19T17:13:09.042Z,27.27
2019-02-19T17:15:50.621Z,17.87
2019-02-19T17:18:29.625Z,25.13
2019-02-19T17:21:17.352Z,30.23
2019-02-19T17:23:47.294Z,23.20
2019-02-19T17:26:17.248Z,23.93
2019-02-19T17:28:59.350Z,21.00
2019-02-19T17:31:34.812Z,25.73
2019-02-19T17:34:07.669Z,14.00
2019-02-19T17:36:37.606Z,11.50
2019-02-19T17:39:26.406Z,32.30
2019-02-19T17:42:14.635Z,24.43
2019-02-19T17:44:50.260Z,23.57
2019-02-19T17:47:22.864Z,14.43
2019-02-19T17:50:09.151Z,19.93
2019-02-19T17:52:55.528Z,27.17
2019-02-19T17:55:27.481Z,33.87
2019-02-19T17:58:00.054Z,20.97
2019-02-19T18:00:32.938Z,19.43
2019-02-19T18:03:08.572Z,18.67
2019-02-19T18:05:47.638Z,24.40
2019-02-19T18:08:17.905Z,16.77
2019-02-19T18:10:47.865Z,13.77
2019-02-19T18:13:29.918Z,16.80
2019-02-19T18:15:59.798Z,21.50
2019-02-19T18:18:32.817Z,30.50
2019-02-19T18:21:01.106Z,26.93
2019-02-19T18:23:29.354Z,28.07
2019-02-19T18:25:57.699Z,20.53
2019-02-19T18:28:25.996Z,15.87
2019-02-19T18:30:54.265Z,16.60
2019-02-19T18:33:22.656Z,17.47
2019-02-19T18:35:50.965Z,20.03
2019-02-19T18:38:19.233Z,20.60
2019-02-19T18:40:47.530Z,20.47
2019-02-19T18:43:15.815Z,12.10
2019-02-19T18:45:44.086Z,21.70
2019-02-19T18:48:12.348Z,18.23
2019-02-19T18:50:40.611Z,27.47
2019-02-19T18:53:08.972Z,17.67
2019-02-19T18:55:37.242Z,14.20
2019-02-19T18:58:05.496Z,27.13
2019-02-19T19:00:33.816Z,11.60
2019-02-19T19:03:02.117Z,29.57
2019-02-19T19:05:30.411Z,15.00
2019-02-19T19:07:58.688Z,30.10
2019-02-19T19:10:26.949Z,12.67
2019-02-19T19:12:55.342Z,20.57
2019-02-19T19:15:23.678Z,14.33
2019-02-19T19:17:51.928Z,13.80
2019-02-19T19:20:20.231Z,11.67
2019-02-19T19:22:48.482Z,16.43
2019-02-19T19:25:16.737Z,12.63
2019-02-19T19:27:45.156Z,21.97
2019-02-19T19:30:14.844Z,29.47
2019-02-19T19:32:43.114Z,15.17
2019-02-19T19:35:11.806Z,12.13
2019-02-19T19:37:40.127Z,20.50
2019-02-19T19:40:10.575Z,20.90
2019-02-19T19:42:38.867Z,24.57
2019-02-19T19:45:10.253Z,17.37
2019-02-19T19:47:38.673Z,25.67
2019-02-19T19:50:09.550Z,19.53
2019-02-19T19:52:37.768Z,27.63
2019-02-19T19:55:08.666Z,24.60
2019-02-19T19:57:36.962Z,17.50
2019-02-19T20:00:08.117Z,19.37
2019-02-19T20:02:36.410Z,50.03
2019-02-19T20:05:06.915Z,16.50
2019-02-19T20:07:35.375Z,42.67
2019-02-19T20:10:04.355Z,37.13
2019-02-19T20:12:32.603Z,22.43
2019-02-19T20:15:00.910Z,25.47
2019-02-19T20:17:29.162Z,28.83
2019-02-19T20:19:57.543Z,31.63
2019-02-19T20:22:28.265Z,21.37
2019-02-19T20:24:56.595Z,29.07
2019-02-19T20:27:24.991Z,22.67
2019-02-19T20:29:53.285Z,35.10
2019-02-19T20:32:21.535Z,27.40
2019-02-19T20:34:52.229Z,27.97
2019-02-19T20:37:22.157Z,26.17
2019-02-19T20:39:50.545Z,27.80
2019-02-19T20:42:18.867Z,23.00
2019-02-19T20:44:47.122Z,27.90
2019-02-19T20:47:15.509Z,25.97
2019-02-19T20:49:43.829Z,29.13
2019-02-19T20:52:12.091Z,27.97
2019-02-19T20:54:40.372Z,20.10
2019-02-19T20:57:08.669Z,28.53
2019-02-19T20:59:37.008Z,29.00
2019-02-19T21:02:05.255Z,24.33
2019-02-19T21:04:33.509Z,22.70
2019-02-19T21:07:01.791Z,23.40
2019-02-19T21:09:30.061Z,26.77
2019-02-19T21:11:58.363Z,16.07
2019-02-19T21:14:26.614Z,17.37
2019-02-19T21:16:54.864Z,22.90
2019-02-19T21:19:23.239Z,16.70
2019-02-19T21:21:51.536Z,22.13
2019-02-19T21:24:19.776Z,31.10
2019-02-19T21:26:48.166Z,17.03
2019-02-19T21:29:16.452Z,35.00
2019-02-19T21:31:44.697Z,23.33
2019-02-19T21:34:13.319Z,25.27
2019-02-19T21:36:41.630Z,39.17
2019-02-19T21:39:10.003Z,15.63
2019-02-19T21:41:38.244Z,22.23
2019-02-19T21:44:06.523Z,17.63
2019-02-19T21:46:34.888Z,24.90
2019-02-19T21:49:03.166Z,20.73
2019-02-19T21:51:31.424Z,24.10
2019-02-19T21:53:59.708Z,22.53
2019-02-19T21:56:27.957Z,20.57
2019-02-19T21:58:56.258Z,19.37
2019-02-19T22:01:24.550Z,15.00
2019-02-19T22:03:52.792Z,26.83
2019-02-19T22:06:21.067Z,17.10
2019-02-19T22:08:49.323Z,20.60
2019-02-19T22:11:17.598Z,17.33
2019-02-19T22:13:45.927Z,20.13
2019-02-19T22:16:14.212Z,15.80
2019-02-19T22:18:42.460Z,16.70
2019-02-19T22:21:15.016Z,25.63
2019-02-19T22:23:43.276Z,28.73
2019-02-19T22:26:11.524Z,30.03
2019-02-19T22:28:39.839Z,21.13
2019-02-19T22:31:08.170Z,26.30
2019-02-19T22:33:36.418Z,21.27
2019-02-19T22:36:04.725Z,20.10
2019-02-19T22:38:32.999Z,19.23
2019-02-19T22:41:01.294Z,21.90
2019-02-19T22:43:29.734Z,21.70
2019-02-19T22:45:57.980Z,15.80
2019-02-19T22:48:26.227Z,13.20
2019-02-19T22:50:54.541Z,15.13
2019-02-19T22:53:42.632Z,19.17
2019-02-19T22:56:12.571Z,14.93
2019-02-19T22:58:40.855Z,26.27
2019-02-19T23:01:22.749Z,21.53
2019-02-19T23:03:50.991Z,14.93
2019-02-19T23:06:19.244Z,27.93
2019-02-19T23:08:48.086Z,20.07
2019-02-19T23:11:17.370Z,27.53
2019-02-19T23:13:45.583Z,18.23
2019-02-19T23:16:13.850Z,28.17
2019-02-19T23:18:42.258Z,29.80
2019-02-19T23:21:10.501Z,16.20
2019-02-19T23:23:38.755Z,23.27
2019-02-19T23:26:07.157Z,23.40
2019-02-19T23:28:35.411Z,34.33
2019-02-19T23:31:03.691Z,26.97
2019-02-19T23:33:32.046Z,21.73
2019-02-19T23:36:07.993Z,25.97
2019-02-19T23:38:36.229Z,31.90
2019-02-19T23:41:04.661Z,25.97
2019-02-19T23:43:32.961Z,35.23
2019-02-19T23:46:01.211Z,26.50
2019-02-19T23:48:29.936Z,36.07
2019-02-19T23:50:58.194Z,40.40
2019-02-19T23:53:26.472Z,22.20
2019-02-19T23:55:54.756Z,32.70
2019-02-19T23:58:23.040Z,35.00
